Meridianville, AL

7:41 AM CDT on August 21, 2014 (GMT -0500)
Pryor Regional | Change Station
CLOSE
Current Station
Airport
Location: Decatur,
Elevation: 591 ft
Nearby Weather Stations

Elev 591 ft 34.65 °N, 86.95 °W | Updated 48 minutes ago

Clear
Clear
71 °F
Feels Like 71 °F
N
4
Wind Variable Wind from SE

Today
High -- | Low -- °F
--% Chance of Precip.
Yesterday
High -- | Low -- °F
Precip. -- in
6:11 AM 7:27 PM
Waning Crescent, 14% visible
Pressure 30.11 in
Visibility 8.0 miles
Clouds Clear
Dew Point 70 °F
Humidity 96%
Rainfall 0.00 in
Snow Depth Not available.
UV 0 out of 12
Pollen 9.00 out of 12
PM2.5 Good
Flu Activity Not available.
METAR KDCU 211153Z AUTO 13003KT 8SM CLR 22/21 A3013 RMK AO2 SLP196 T02170211 10239 20200 53015

More Conditions Fewer Conditions

Pressure 30.11 in
Visibility 8.0 miles
Clouds Clear
Dew Point 70 °F
Humidity 96%
Rainfall 0.00 in
Snow Depth Not available.
UV 0 out of 12
Pollen 9.00 out of 12
PM2.5 Good
Flu Activity Not available.
METAR KDCU 211153Z AUTO 13003KT 8SM CLR 22/21 A3013 RMK AO2 SLP196 T02170211 10239 20200 53015

More Conditions Fewer Conditions

10-Day Weather Forecast

Almanac

Astronomy

Aug. 21, 2014 Rise Set
Actual Time 6:11 AM CDT 7:27 PM CDT
Civil Twilight 5:44 AM CDT 7:53 PM CDT
Nautical Twilight 5:13 AM CDT 8:24 PM CDT
Astronomical Twilight 4:40 AM CDT 8:57 PM CDT
Moon 2:44 AM CDT 4:52 PM CDT
Length of Visible Light 14h 08m
Length of Day
13h 16m
Tomorrow will be 2m 0s shorter.
Waning Crescent, 14% of the Moon is Illuminated
Today
Waning Crescent
Aug 25
New
Sep 2
First Quarter
Sep 8
Full
Sep 15
Last Quarter

Today's Extremes

State Highs State Lows

Community

WunderPhotos

Upload Photos

1,745,895 photos uploaded!

WunderBlogs® & News

Nearby

Air Quality

  Air Quality AQ Index Pollutant
Yesterday Moderate
PM2.5
Yesterday Good
OZONE
Current Good
PM2.5
Thursday Moderate
PM2.5
Thursday Good
OZONE

Snow Depth

Station Depth Elevation
No new snow has been reported.

Earthquake Activity

City Distance Mag. Time & Date
No recent earthquake activity has been reported nearby.
Minimum magnitude displayed is 2.5.

Coastal Water Temperatures

Place Temperature
No Stations Reporting

Nearby Weather Stations